sensor_id;sensor_type;location;lat;lon;timestamp;P1;durP1;ratioP1;P2;durP2;ratioP2
15126;SDS011;7664;52.008;4.748;2023-05-10T00:00:36;17.98;;;12.07;;
15126;SDS011;7664;52.008;4.748;2023-05-10T00:03:04;16.83;;;11.88;;
15126;SDS011;7664;52.008;4.748;2023-05-10T00:05:33;18.40;;;12.85;;
15126;SDS011;7664;52.008;4.748;2023-05-10T00:08:01;19.45;;;12.38;;
15126;SDS011;7664;52.008;4.748;2023-05-10T00:10:29;19.90;;;13.35;;
15126;SDS011;7664;52.008;4.748;2023-05-10T00:12:57;18.42;;;12.15;;
15126;SDS011;7664;52.008;4.748;2023-05-10T00:15:26;17.02;;;11.48;;
15126;SDS011;7664;52.008;4.748;2023-05-10T00:17:58;17.83;;;11.77;;
15126;SDS011;7664;52.008;4.748;2023-05-10T00:20:26;19.17;;;12.20;;
15126;SDS011;7664;52.008;4.748;2023-05-10T00:22:55;22.67;;;13.20;;
15126;SDS011;7664;52.008;4.748;2023-05-10T00:25:24;21.90;;;12.85;;
15126;SDS011;7664;52.008;4.748;2023-05-10T00:27:52;18.90;;;11.30;;
15126;SDS011;7664;52.008;4.748;2023-05-10T00:30:21;19.88;;;12.20;;
15126;SDS011;7664;52.008;4.748;2023-05-10T00:32:49;20.83;;;12.30;;
15126;SDS011;7664;52.008;4.748;2023-05-10T00:35:19;23.45;;;14.25;;
15126;SDS011;7664;52.008;4.748;2023-05-10T00:37:48;22.15;;;12.90;;
15126;SDS011;7664;52.008;4.748;2023-05-10T00:40:17;20.83;;;13.02;;
15126;SDS011;7664;52.008;4.748;2023-05-10T00:42:49;20.60;;;12.68;;
15126;SDS011;7664;52.008;4.748;2023-05-10T00:45:17;22.42;;;13.63;;
15126;SDS011;7664;52.008;4.748;2023-05-10T00:47:45;19.17;;;12.98;;
15126;SDS011;7664;52.008;4.748;2023-05-10T00:50:14;27.98;;;15.95;;
15126;SDS011;7664;52.008;4.748;2023-05-10T00:52:44;22.65;;;13.60;;
15126;SDS011;7664;52.008;4.748;2023-05-10T00:55:12;23.42;;;14.43;;
15126;SDS011;7664;52.008;4.748;2023-05-10T00:57:41;24.77;;;14.93;;
15126;SDS011;7664;52.008;4.748;2023-05-10T01:00:10;27.05;;;15.57;;
15126;SDS011;7664;52.008;4.748;2023-05-10T01:02:38;30.42;;;17.17;;
15126;SDS011;7664;52.008;4.748;2023-05-10T01:05:07;24.45;;;15.40;;
15126;SDS011;7664;52.008;4.748;2023-05-10T01:07:36;25.45;;;14.07;;
15126;SDS011;7664;52.008;4.748;2023-05-10T01:10:07;27.85;;;16.52;;
15126;SDS011;7664;52.008;4.748;2023-05-10T01:12:37;28.63;;;15.55;;
15126;SDS011;7664;52.008;4.748;2023-05-10T01:15:06;29.20;;;16.58;;
15126;SDS011;7664;52.008;4.748;2023-05-10T01:17:36;28.67;;;17.05;;
15126;SDS011;7664;52.008;4.748;2023-05-10T01:20:06;27.95;;;15.18;;
15126;SDS011;7664;52.008;4.748;2023-05-10T01:22:47;28.30;;;16.40;;
15126;SDS011;7664;52.008;4.748;2023-05-10T01:25:26;24.02;;;15.40;;
15126;SDS011;7664;52.008;4.748;2023-05-10T01:28:07;30.42;;;16.80;;
15126;SDS011;7664;52.008;4.748;2023-05-10T01:30:51;27.85;;;16.05;;
15126;SDS011;7664;52.008;4.748;2023-05-10T01:33:27;24.23;;;15.23;;
15126;SDS011;7664;52.008;4.748;2023-05-10T01:35:59;31.15;;;17.55;;
15126;SDS011;7664;52.008;4.748;2023-05-10T01:38:36;27.38;;;16.45;;
15126;SDS011;7664;52.008;4.748;2023-05-10T01:41:08;26.83;;;15.20;;
15126;SDS011;7664;52.008;4.748;2023-05-10T01:43:42;24.58;;;15.32;;
15126;SDS011;7664;52.008;4.748;2023-05-10T01:46:14;26.42;;;15.27;;
15126;SDS011;7664;52.008;4.748;2023-05-10T01:48:47;27.63;;;15.15;;
15126;SDS011;7664;52.008;4.748;2023-05-10T01:51:16;25.13;;;15.40;;
15126;SDS011;7664;52.008;4.748;2023-05-10T01:53:45;24.77;;;15.63;;
15126;SDS011;7664;52.008;4.748;2023-05-10T01:56:15;26.02;;;16.23;;
15126;SDS011;7664;52.008;4.748;2023-05-10T01:58:44;35.55;;;16.48;;
15126;SDS011;7664;52.008;4.748;2023-05-10T02:01:13;22.45;;;14.50;;
15126;SDS011;7664;52.008;4.748;2023-05-10T02:03:43;25.63;;;15.18;;
15126;SDS011;7664;52.008;4.748;2023-05-10T02:06:13;29.92;;;15.85;;
15126;SDS011;7664;52.008;4.748;2023-05-10T02:08:42;25.30;;;15.43;;
15126;SDS011;7664;52.008;4.748;2023-05-10T02:11:12;28.35;;;16.75;;
15126;SDS011;7664;52.008;4.748;2023-05-10T02:13:41;26.33;;;17.52;;
15126;SDS011;7664;52.008;4.748;2023-05-10T02:16:11;29.70;;;15.65;;
15126;SDS011;7664;52.008;4.748;2023-05-10T02:18:40;27.60;;;15.88;;
15126;SDS011;7664;52.008;4.748;2023-05-10T02:21:09;24.80;;;14.90;;
15126;SDS011;7664;52.008;4.748;2023-05-10T02:23:40;23.67;;;14.70;;
15126;SDS011;7664;52.008;4.748;2023-05-10T02:26:08;27.05;;;15.90;;
15126;SDS011;7664;52.008;4.748;2023-05-10T02:28:37;26.55;;;16.88;;
15126;SDS011;7664;52.008;4.748;2023-05-10T02:31:05;30.48;;;16.83;;
15126;SDS011;7664;52.008;4.748;2023-05-10T02:33:37;32.85;;;18.48;;
15126;SDS011;7664;52.008;4.748;2023-05-10T02:36:07;29.10;;;17.10;;
15126;SDS011;7664;52.008;4.748;2023-05-10T02:38:36;29.42;;;18.27;;
15126;SDS011;7664;52.008;4.748;2023-05-10T02:41:06;28.33;;;17.42;;
15126;SDS011;7664;52.008;4.748;2023-05-10T02:43:35;28.25;;;17.55;;
15126;SDS011;7664;52.008;4.748;2023-05-10T02:46:05;29.88;;;18.17;;
15126;SDS011;7664;52.008;4.748;2023-05-10T02:48:34;27.98;;;17.40;;
15126;SDS011;7664;52.008;4.748;2023-05-10T02:51:04;27.42;;;17.17;;
15126;SDS011;7664;52.008;4.748;2023-05-10T02:53:34;29.80;;;17.95;;
15126;SDS011;7664;52.008;4.748;2023-05-10T02:56:04;27.55;;;17.25;;
15126;SDS011;7664;52.008;4.748;2023-05-10T02:58:35;28.92;;;17.48;;
15126;SDS011;7664;52.008;4.748;2023-05-10T03:01:03;29.75;;;17.00;;
15126;SDS011;7664;52.008;4.748;2023-05-10T03:03:33;23.50;;;16.15;;
15126;SDS011;7664;52.008;4.748;2023-05-10T03:06:02;33.00;;;17.33;;
15126;SDS011;7664;52.008;4.748;2023-05-10T03:08:30;33.78;;;18.52;;
15126;SDS011;7664;52.008;4.748;2023-05-10T03:11:03;31.35;;;17.55;;
15126;SDS011;7664;52.008;4.748;2023-05-10T03:13:39;31.05;;;16.90;;
15126;SDS011;7664;52.008;4.748;2023-05-10T03:16:12;26.67;;;17.23;;
15126;SDS011;7664;52.008;4.748;2023-05-10T03:18:42;30.83;;;17.00;;
15126;SDS011;7664;52.008;4.748;2023-05-10T03:21:12;28.85;;;17.50;;
15126;SDS011;7664;52.008;4.748;2023-05-10T03:23:43;28.25;;;16.50;;
15126;SDS011;7664;52.008;4.748;2023-05-10T03:26:12;29.73;;;17.15;;
15126;SDS011;7664;52.008;4.748;2023-05-10T03:28:44;30.35;;;16.75;;
15126;SDS011;7664;52.008;4.748;2023-05-10T03:31:14;25.92;;;15.57;;
15126;SDS011;7664;52.008;4.748;2023-05-10T03:33:46;28.67;;;17.42;;
15126;SDS011;7664;52.008;4.748;2023-05-10T03:36:19;27.23;;;16.50;;
15126;SDS011;7664;52.008;4.748;2023-05-10T03:38:47;30.85;;;18.40;;
15126;SDS011;7664;52.008;4.748;2023-05-10T03:41:16;31.15;;;20.08;;
15126;SDS011;7664;52.008;4.748;2023-05-10T03:43:46;29.90;;;18.00;;
15126;SDS011;7664;52.008;4.748;2023-05-10T03:46:14;31.05;;;19.50;;
15126;SDS011;7664;52.008;4.748;2023-05-10T03:48:43;32.08;;;18.63;;
15126;SDS011;7664;52.008;4.748;2023-05-10T03:51:11;29.65;;;16.02;;
15126;SDS011;7664;52.008;4.748;2023-05-10T03:53:39;28.75;;;16.55;;
15126;SDS011;7664;52.008;4.748;2023-05-10T03:56:08;28.48;;;16.33;;
15126;SDS011;7664;52.008;4.748;2023-05-10T03:58:36;27.63;;;17.38;;
15126;SDS011;7664;52.008;4.748;2023-05-10T04:01:06;28.30;;;18.13;;
15126;SDS011;7664;52.008;4.748;2023-05-10T04:03:34;30.83;;;18.50;;
15126;SDS011;7664;52.008;4.748;2023-05-10T04:06:04;26.13;;;17.65;;
15126;SDS011;7664;52.008;4.748;2023-05-10T04:08:35;29.65;;;19.40;;
15126;SDS011;7664;52.008;4.748;2023-05-10T04:11:06;31.23;;;19.27;;
15126;SDS011;7664;52.008;4.748;2023-05-10T04:13:35;34.47;;;20.38;;
15126;SDS011;7664;52.008;4.748;2023-05-10T04:16:03;29.65;;;20.17;;
15126;SDS011;7664;52.008;4.748;2023-05-10T04:18:33;33.75;;;18.83;;
15126;SDS011;7664;52.008;4.748;2023-05-10T04:21:02;29.02;;;19.08;;
15126;SDS011;7664;52.008;4.748;2023-05-10T04:23:30;31.33;;;18.83;;
15126;SDS011;7664;52.008;4.748;2023-05-10T04:25:59;29.83;;;18.98;;
15126;SDS011;7664;52.008;4.748;2023-05-10T04:28:27;34.05;;;19.75;;
15126;SDS011;7664;52.008;4.748;2023-05-10T04:31:00;29.40;;;17.75;;
15126;SDS011;7664;52.008;4.748;2023-05-10T04:33:29;28.85;;;17.23;;
15126;SDS011;7664;52.008;4.748;2023-05-10T04:35:58;31.77;;;19.63;;
15126;SDS011;7664;52.008;4.748;2023-05-10T04:38:27;28.05;;;19.00;;
15126;SDS011;7664;52.008;4.748;2023-05-10T04:41:03;30.35;;;19.90;;
15126;SDS011;7664;52.008;4.748;2023-05-10T04:43:32;29.35;;;19.27;;
15126;SDS011;7664;52.008;4.748;2023-05-10T04:46:01;25.13;;;17.77;;
15126;SDS011;7664;52.008;4.748;2023-05-10T04:48:29;26.75;;;18.45;;
15126;SDS011;7664;52.008;4.748;2023-05-10T04:50:59;26.85;;;17.75;;
15126;SDS011;7664;52.008;4.748;2023-05-10T04:53:29;28.42;;;18.92;;
15126;SDS011;7664;52.008;4.748;2023-05-10T04:55:58;29.27;;;19.65;;
15126;SDS011;7664;52.008;4.748;2023-05-10T04:58:26;28.02;;;18.73;;
15126;SDS011;7664;52.008;4.748;2023-05-10T05:00:55;28.13;;;18.75;;
15126;SDS011;7664;52.008;4.748;2023-05-10T05:03:23;24.67;;;15.73;;
15126;SDS011;7664;52.008;4.748;2023-05-10T05:05:52;26.17;;;17.67;;
15126;SDS011;7664;52.008;4.748;2023-05-10T05:08:22;26.30;;;18.33;;
15126;SDS011;7664;52.008;4.748;2023-05-10T05:10:50;25.70;;;17.30;;
15126;SDS011;7664;52.008;4.748;2023-05-10T05:13:18;22.27;;;15.23;;
15126;SDS011;7664;52.008;4.748;2023-05-10T05:15:47;21.15;;;15.57;;
15126;SDS011;7664;52.008;4.748;2023-05-10T05:18:15;23.00;;;15.68;;
15126;SDS011;7664;52.008;4.748;2023-05-10T05:20:44;21.55;;;14.88;;
15126;SDS011;7664;52.008;4.748;2023-05-10T05:23:12;26.55;;;17.02;;
15126;SDS011;7664;52.008;4.748;2023-05-10T05:25:42;26.33;;;15.68;;
15126;SDS011;7664;52.008;4.748;2023-05-10T05:28:10;24.50;;;15.27;;
15126;SDS011;7664;52.008;4.748;2023-05-10T05:30:39;20.70;;;13.45;;
15126;SDS011;7664;52.008;4.748;2023-05-10T05:33:07;21.25;;;13.77;;
15126;SDS011;7664;52.008;4.748;2023-05-10T05:35:36;21.58;;;13.43;;
15126;SDS011;7664;52.008;4.748;2023-05-10T05:38:04;22.67;;;13.85;;
15126;SDS011;7664;52.008;4.748;2023-05-10T05:40:33;23.17;;;13.05;;
15126;SDS011;7664;52.008;4.748;2023-05-10T05:43:03;17.77;;;11.88;;
15126;SDS011;7664;52.008;4.748;2023-05-10T05:45:31;18.17;;;10.75;;
15126;SDS011;7664;52.008;4.748;2023-05-10T05:47:59;20.38;;;11.27;;
15126;SDS011;7664;52.008;4.748;2023-05-10T05:50:31;20.00;;;10.95;;
15126;SDS011;7664;52.008;4.748;2023-05-10T05:52:59;22.10;;;11.68;;
15126;SDS011;7664;52.008;4.748;2023-05-10T05:55:28;18.23;;;11.18;;
15126;SDS011;7664;52.008;4.748;2023-05-10T05:57:57;19.40;;;10.48;;
15126;SDS011;7664;52.008;4.748;2023-05-10T06:00:27;15.77;;;10.07;;
15126;SDS011;7664;52.008;4.748;2023-05-10T06:02:56;19.73;;;12.30;;
15126;SDS011;7664;52.008;4.748;2023-05-10T06:05:25;17.77;;;10.75;;
15126;SDS011;7664;52.008;4.748;2023-05-10T06:07:53;15.57;;;9.60;;
15126;SDS011;7664;52.008;4.748;2023-05-10T06:10:22;16.58;;;9.35;;
15126;SDS011;7664;52.008;4.748;2023-05-10T06:12:51;16.83;;;10.02;;
15126;SDS011;7664;52.008;4.748;2023-05-10T06:15:20;14.48;;;9.00;;
15126;SDS011;7664;52.008;4.748;2023-05-10T06:17:50;17.90;;;9.90;;
15126;SDS011;7664;52.008;4.748;2023-05-10T06:20:18;16.70;;;9.45;;
15126;SDS011;7664;52.008;4.748;2023-05-10T06:22:46;17.58;;;10.25;;
15126;SDS011;7664;52.008;4.748;2023-05-10T06:25:15;15.73;;;9.50;;
15126;SDS011;7664;52.008;4.748;2023-05-10T06:27:44;16.48;;;9.57;;
15126;SDS011;7664;52.008;4.748;2023-05-10T06:30:18;14.85;;;9.02;;
15126;SDS011;7664;52.008;4.748;2023-05-10T06:32:50;11.77;;;7.20;;
15126;SDS011;7664;52.008;4.748;2023-05-10T06:35:18;11.60;;;6.85;;
15126;SDS011;7664;52.008;4.748;2023-05-10T06:37:47;12.20;;;6.90;;
15126;SDS011;7664;52.008;4.748;2023-05-10T06:40:16;11.05;;;7.43;;
15126;SDS011;7664;52.008;4.748;2023-05-10T06:42:44;11.63;;;7.32;;
15126;SDS011;7664;52.008;4.748;2023-05-10T06:45:13;8.70;;;6.28;;
15126;SDS011;7664;52.008;4.748;2023-05-10T06:47:42;9.00;;;4.55;;
15126;SDS011;7664;52.008;4.748;2023-05-10T06:50:12;8.35;;;5.65;;
15126;SDS011;7664;52.008;4.748;2023-05-10T06:52:40;7.20;;;4.68;;
15126;SDS011;7664;52.008;4.748;2023-05-10T06:55:09;7.45;;;4.95;;
15126;SDS011;7664;52.008;4.748;2023-05-10T06:57:38;7.13;;;4.28;;
15126;SDS011;7664;52.008;4.748;2023-05-10T07:00:06;10.15;;;4.70;;
15126;SDS011;7664;52.008;4.748;2023-05-10T07:02:36;7.20;;;3.70;;
15126;SDS011;7664;52.008;4.748;2023-05-10T07:05:04;5.93;;;4.20;;
15126;SDS011;7664;52.008;4.748;2023-05-10T07:07:34;4.88;;;3.30;;
15126;SDS011;7664;52.008;4.748;2023-05-10T07:10:03;4.70;;;3.55;;
15126;SDS011;7664;52.008;4.748;2023-05-10T07:12:32;4.95;;;3.85;;
15126;SDS011;7664;52.008;4.748;2023-05-10T07:15:00;5.95;;;4.03;;
15126;SDS011;7664;52.008;4.748;2023-05-10T07:17:29;6.35;;;4.07;;
15126;SDS011;7664;52.008;4.748;2023-05-10T07:19:57;5.53;;;3.35;;
15126;SDS011;7664;52.008;4.748;2023-05-10T07:22:26;5.35;;;3.97;;
15126;SDS011;7664;52.008;4.748;2023-05-10T07:24:56;5.15;;;3.50;;
15126;SDS011;7664;52.008;4.748;2023-05-10T07:27:25;6.57;;;3.60;;
15126;SDS011;7664;52.008;4.748;2023-05-10T07:29:53;6.70;;;4.03;;
15126;SDS011;7664;52.008;4.748;2023-05-10T07:32:22;4.65;;;3.35;;
15126;SDS011;7664;52.008;4.748;2023-05-10T07:34:51;5.20;;;3.05;;
15126;SDS011;7664;52.008;4.748;2023-05-10T07:37:20;5.88;;;2.97;;
15126;SDS011;7664;52.008;4.748;2023-05-10T07:39:48;4.15;;;3.00;;
15126;SDS011;7664;52.008;4.748;2023-05-10T07:42:17;3.55;;;2.95;;
15126;SDS011;7664;52.008;4.748;2023-05-10T07:44:46;3.60;;;2.85;;
15126;SDS011;7664;52.008;4.748;2023-05-10T07:47:14;4.43;;;3.15;;
15126;SDS011;7664;52.008;4.748;2023-05-10T07:49:42;5.20;;;3.03;;
15126;SDS011;7664;52.008;4.748;2023-05-10T07:52:11;3.78;;;2.70;;
15126;SDS011;7664;52.008;4.748;2023-05-10T07:54:39;4.35;;;3.33;;
15126;SDS011;7664;52.008;4.748;2023-05-10T07:57:08;4.15;;;2.65;;
15126;SDS011;7664;52.008;4.748;2023-05-10T07:59:38;3.53;;;2.85;;
15126;SDS011;7664;52.008;4.748;2023-05-10T08:02:06;4.07;;;2.65;;
15126;SDS011;7664;52.008;4.748;2023-05-10T08:04:34;4.60;;;3.20;;
15126;SDS011;7664;52.008;4.748;2023-05-10T08:07:03;3.75;;;2.90;;
15126;SDS011;7664;52.008;4.748;2023-05-10T08:09:31;4.13;;;3.28;;
15126;SDS011;7664;52.008;4.748;2023-05-10T08:11:59;3.17;;;2.63;;
15126;SDS011;7664;52.008;4.748;2023-05-10T08:14:28;3.85;;;2.60;;
15126;SDS011;7664;52.008;4.748;2023-05-10T08:16:58;4.35;;;2.30;;
15126;SDS011;7664;52.008;4.748;2023-05-10T08:19:27;4.90;;;2.47;;
15126;SDS011;7664;52.008;4.748;2023-05-10T08:21:55;3.85;;;2.63;;
15126;SDS011;7664;52.008;4.748;2023-05-10T08:24:23;3.88;;;2.60;;
15126;SDS011;7664;52.008;4.748;2023-05-10T08:26:52;4.20;;;2.53;;
15126;SDS011;7664;52.008;4.748;2023-05-10T08:29:20;4.68;;;3.03;;
15126;SDS011;7664;52.008;4.748;2023-05-10T08:31:49;3.92;;;2.95;;
15126;SDS011;7664;52.008;4.748;2023-05-10T08:34:19;7.03;;;3.38;;
15126;SDS011;7664;52.008;4.748;2023-05-10T08:36:48;5.85;;;3.90;;
15126;SDS011;7664;52.008;4.748;2023-05-10T08:39:16;4.85;;;3.60;;
15126;SDS011;7664;52.008;4.748;2023-05-10T08:41:55;5.47;;;3.92;;
15126;SDS011;7664;52.008;4.748;2023-05-10T08:44:26;6.88;;;4.20;;
15126;SDS011;7664;52.008;4.748;2023-05-10T08:46:55;5.40;;;3.80;;
15126;SDS011;7664;52.008;4.748;2023-05-10T08:49:25;8.13;;;3.85;;
15126;SDS011;7664;52.008;4.748;2023-05-10T08:51:55;6.28;;;4.25;;
15126;SDS011;7664;52.008;4.748;2023-05-10T08:54:26;5.80;;;3.17;;
15126;SDS011;7664;52.008;4.748;2023-05-10T08:56:54;5.32;;;3.25;;
15126;SDS011;7664;52.008;4.748;2023-05-10T08:59:23;7.72;;;4.05;;
15126;SDS011;7664;52.008;4.748;2023-05-10T09:01:52;6.10;;;3.85;;
15126;SDS011;7664;52.008;4.748;2023-05-10T09:04:22;6.75;;;3.58;;
15126;SDS011;7664;52.008;4.748;2023-05-10T09:06:53;6.93;;;3.72;;
15126;SDS011;7664;52.008;4.748;2023-05-10T09:09:22;5.15;;;4.10;;
15126;SDS011;7664;52.008;4.748;2023-05-10T09:11:51;4.30;;;3.15;;
15126;SDS011;7664;52.008;4.748;2023-05-10T09:14:20;5.93;;;3.60;;
15126;SDS011;7664;52.008;4.748;2023-05-10T09:16:51;4.85;;;3.28;;
15126;SDS011;7664;52.008;4.748;2023-05-10T09:19:20;7.05;;;3.72;;
15126;SDS011;7664;52.008;4.748;2023-05-10T09:21:49;5.35;;;3.50;;
15126;SDS011;7664;52.008;4.748;2023-05-10T09:24:19;6.50;;;3.65;;
15126;SDS011;7664;52.008;4.748;2023-05-10T09:26:47;8.57;;;3.80;;
15126;SDS011;7664;52.008;4.748;2023-05-10T09:29:16;5.47;;;3.33;;
15126;SDS011;7664;52.008;4.748;2023-05-10T09:31:45;6.55;;;3.42;;
15126;SDS011;7664;52.008;4.748;2023-05-10T09:34:17;5.38;;;3.33;;
15126;SDS011;7664;52.008;4.748;2023-05-10T09:36:52;5.93;;;3.33;;
15126;SDS011;7664;52.008;4.748;2023-05-10T09:39:30;5.13;;;3.08;;
15126;SDS011;7664;52.008;4.748;2023-05-10T09:41:59;6.63;;;3.15;;
15126;SDS011;7664;52.008;4.748;2023-05-10T09:44:30;3.50;;;2.80;;
15126;SDS011;7664;52.008;4.748;2023-05-10T09:46:59;4.72;;;3.38;;
15126;SDS011;7664;52.008;4.748;2023-05-10T09:49:27;5.35;;;3.42;;
15126;SDS011;7664;52.008;4.748;2023-05-10T09:52:02;4.63;;;3.00;;
15126;SDS011;7664;52.008;4.748;2023-05-10T09:54:33;5.70;;;2.97;;
15126;SDS011;7664;52.008;4.748;2023-05-10T09:57:01;4.57;;;2.83;;
15126;SDS011;7664;52.008;4.748;2023-05-10T09:59:32;4.72;;;3.17;;
15126;SDS011;7664;52.008;4.748;2023-05-10T10:02:02;4.25;;;3.10;;
15126;SDS011;7664;52.008;4.748;2023-05-10T10:04:31;4.93;;;3.05;;
15126;SDS011;7664;52.008;4.748;2023-05-10T10:07:00;5.28;;;3.05;;
15126;SDS011;7664;52.008;4.748;2023-05-10T10:09:29;4.47;;;3.15;;
15126;SDS011;7664;52.008;4.748;2023-05-10T10:11:59;4.40;;;3.22;;
15126;SDS011;7664;52.008;4.748;2023-05-10T10:14:28;3.63;;;2.53;;
15126;SDS011;7664;52.008;4.748;2023-05-10T10:16:57;3.22;;;2.40;;
15126;SDS011;7664;52.008;4.748;2023-05-10T10:19:32;3.70;;;2.17;;
15126;SDS011;7664;52.008;4.748;2023-05-10T10:22:02;3.55;;;2.60;;
15126;SDS011;7664;52.008;4.748;2023-05-10T10:24:30;3.25;;;2.53;;
15126;SDS011;7664;52.008;4.748;2023-05-10T10:27:06;5.35;;;3.72;;
15126;SDS011;7664;52.008;4.748;2023-05-10T10:29:39;5.50;;;4.30;;
15126;SDS011;7664;52.008;4.748;2023-05-10T10:32:09;7.07;;;5.15;;
15126;SDS011;7664;52.008;4.748;2023-05-10T10:34:40;6.53;;;5.45;;
15126;SDS011;7664;52.008;4.748;2023-05-10T10:37:08;7.30;;;5.60;;
15126;SDS011;7664;52.008;4.748;2023-05-10T10:39:37;7.90;;;6.00;;
15126;SDS011;7664;52.008;4.748;2023-05-10T10:42:06;6.05;;;5.35;;
15126;SDS011;7664;52.008;4.748;2023-05-10T10:44:36;9.15;;;5.03;;
15126;SDS011;7664;52.008;4.748;2023-05-10T10:47:06;9.10;;;5.75;;
15126;SDS011;7664;52.008;4.748;2023-05-10T10:49:38;6.53;;;4.88;;
15126;SDS011;7664;52.008;4.748;2023-05-10T10:52:14;8.02;;;5.60;;
15126;SDS011;7664;52.008;4.748;2023-05-10T10:54:46;5.63;;;4.47;;
15126;SDS011;7664;52.008;4.748;2023-05-10T10:57:19;6.28;;;4.70;;
15126;SDS011;7664;52.008;4.748;2023-05-10T10:59:49;6.75;;;4.40;;
15126;SDS011;7664;52.008;4.748;2023-05-10T11:02:32;6.45;;;4.18;;
15126;SDS011;7664;52.008;4.748;2023-05-10T11:05:09;5.90;;;4.28;;
15126;SDS011;7664;52.008;4.748;2023-05-10T11:07:53;6.47;;;4.07;;
15126;SDS011;7664;52.008;4.748;2023-05-10T11:10:22;5.88;;;3.75;;
15126;SDS011;7664;52.008;4.748;2023-05-10T11:12:53;4.50;;;3.70;;
15126;SDS011;7664;52.008;4.748;2023-05-10T11:15:28;5.03;;;3.67;;
15126;SDS011;7664;52.008;4.748;2023-05-10T11:17:57;7.65;;;4.32;;
15126;SDS011;7664;52.008;4.748;2023-05-10T11:20:33;6.68;;;4.00;;
15126;SDS011;7664;52.008;4.748;2023-05-10T11:23:13;6.63;;;3.90;;
15126;SDS011;7664;52.008;4.748;2023-05-10T11:25:42;6.50;;;4.85;;
15126;SDS011;7664;52.008;4.748;2023-05-10T11:28:12;9.85;;;5.00;;
15126;SDS011;7664;52.008;4.748;2023-05-10T11:30:42;7.90;;;4.55;;
15126;SDS011;7664;52.008;4.748;2023-05-10T11:33:14;7.70;;;4.00;;
15126;SDS011;7664;52.008;4.748;2023-05-10T11:35:43;7.03;;;4.68;;
15126;SDS011;7664;52.008;4.748;2023-05-10T11:38:12;7.82;;;4.68;;
15126;SDS011;7664;52.008;4.748;2023-05-10T11:40:40;6.47;;;4.65;;
15126;SDS011;7664;52.008;4.748;2023-05-10T11:43:09;6.80;;;4.00;;
15126;SDS011;7664;52.008;4.748;2023-05-10T11:45:40;6.78;;;4.63;;
15126;SDS011;7664;52.008;4.748;2023-05-10T11:48:09;6.53;;;4.18;;
15126;SDS011;7664;52.008;4.748;2023-05-10T11:50:38;4.75;;;3.63;;
15126;SDS011;7664;52.008;4.748;2023-05-10T11:53:06;6.50;;;3.97;;
15126;SDS011;7664;52.008;4.748;2023-05-10T11:55:34;7.93;;;4.28;;
15126;SDS011;7664;52.008;4.748;2023-05-10T11:58:04;4.95;;;3.70;;
15126;SDS011;7664;52.008;4.748;2023-05-10T12:00:32;6.03;;;3.78;;
15126;SDS011;7664;52.008;4.748;2023-05-10T12:03:02;6.03;;;4.45;;
15126;SDS011;7664;52.008;4.748;2023-05-10T12:05:31;5.50;;;4.07;;
15126;SDS011;7664;52.008;4.748;2023-05-10T12:08:13;6.88;;;4.53;;
15126;SDS011;7664;52.008;4.748;2023-05-10T12:10:41;7.13;;;4.93;;
15126;SDS011;7664;52.008;4.748;2023-05-10T12:13:13;9.15;;;4.95;;
15126;SDS011;7664;52.008;4.748;2023-05-10T12:15:42;7.13;;;4.93;;
15126;SDS011;7664;52.008;4.748;2023-05-10T12:18:12;7.43;;;4.90;;
15126;SDS011;7664;52.008;4.748;2023-05-10T12:20:41;10.27;;;5.80;;
15126;SDS011;7664;52.008;4.748;2023-05-10T12:23:09;6.90;;;4.00;;
15126;SDS011;7664;52.008;4.748;2023-05-10T12:25:38;6.97;;;4.55;;
15126;SDS011;7664;52.008;4.748;2023-05-10T12:28:07;7.38;;;4.15;;
15126;SDS011;7664;52.008;4.748;2023-05-10T12:30:36;6.60;;;4.22;;
15126;SDS011;7664;52.008;4.748;2023-05-10T12:33:07;6.18;;;4.20;;
15126;SDS011;7664;52.008;4.748;2023-05-10T12:35:47;5.90;;;4.45;;
15126;SDS011;7664;52.008;4.748;2023-05-10T12:38:28;5.88;;;3.78;;
15126;SDS011;7664;52.008;4.748;2023-05-10T12:40:57;5.53;;;2.95;;
15126;SDS011;7664;52.008;4.748;2023-05-10T12:43:26;5.88;;;4.05;;
15126;SDS011;7664;52.008;4.748;2023-05-10T12:45:55;6.30;;;4.40;;
15126;SDS011;7664;52.008;4.748;2023-05-10T12:48:24;6.03;;;3.33;;
15126;SDS011;7664;52.008;4.748;2023-05-10T12:50:54;6.82;;;3.72;;
15126;SDS011;7664;52.008;4.748;2023-05-10T12:53:22;4.95;;;3.28;;
15126;SDS011;7664;52.008;4.748;2023-05-10T12:55:50;6.45;;;3.70;;
15126;SDS011;7664;52.008;4.748;2023-05-10T12:58:19;4.63;;;3.20;;
15126;SDS011;7664;52.008;4.748;2023-05-10T13:00:52;5.75;;;3.60;;
15126;SDS011;7664;52.008;4.748;2023-05-10T13:03:22;6.85;;;4.20;;
15126;SDS011;7664;52.008;4.748;2023-05-10T13:05:51;3.75;;;3.35;;
15126;SDS011;7664;52.008;4.748;2023-05-10T13:08:20;4.20;;;2.72;;
15126;SDS011;7664;52.008;4.748;2023-05-10T13:10:49;3.42;;;2.53;;
15126;SDS011;7664;52.008;4.748;2023-05-10T13:13:18;4.15;;;2.30;;
15126;SDS011;7664;52.008;4.748;2023-05-10T13:15:46;5.72;;;3.35;;
15126;SDS011;7664;52.008;4.748;2023-05-10T13:18:14;4.75;;;2.80;;
15126;SDS011;7664;52.008;4.748;2023-05-10T13:20:43;5.15;;;3.72;;
15126;SDS011;7664;52.008;4.748;2023-05-10T13:23:11;6.05;;;3.22;;
15126;SDS011;7664;52.008;4.748;2023-05-10T13:25:41;4.05;;;3.58;;
15126;SDS011;7664;52.008;4.748;2023-05-10T13:28:09;6.97;;;3.45;;
15126;SDS011;7664;52.008;4.748;2023-05-10T13:30:38;3.80;;;2.72;;
15126;SDS011;7664;52.008;4.748;2023-05-10T13:33:06;4.30;;;3.03;;
15126;SDS011;7664;52.008;4.748;2023-05-10T13:35:34;6.35;;;3.33;;
15126;SDS011;7664;52.008;4.748;2023-05-10T13:38:03;5.07;;;3.30;;
15126;SDS011;7664;52.008;4.748;2023-05-10T13:40:34;6.40;;;3.90;;
15126;SDS011;7664;52.008;4.748;2023-05-10T13:43:03;5.68;;;3.78;;
15126;SDS011;7664;52.008;4.748;2023-05-10T13:45:32;6.13;;;4.43;;
15126;SDS011;7664;52.008;4.748;2023-05-10T13:48:00;7.57;;;4.38;;
15126;SDS011;7664;52.008;4.748;2023-05-10T13:50:28;5.75;;;4.10;;
15126;SDS011;7664;52.008;4.748;2023-05-10T13:52:57;8.55;;;4.25;;
15126;SDS011;7664;52.008;4.748;2023-05-10T13:55:25;6.18;;;4.15;;
15126;SDS011;7664;52.008;4.748;2023-05-10T13:57:54;5.68;;;3.80;;
15126;SDS011;7664;52.008;4.748;2023-05-10T14:00:24;6.07;;;3.40;;
15126;SDS011;7664;52.008;4.748;2023-05-10T14:02:53;5.95;;;3.55;;
15126;SDS011;7664;52.008;4.748;2023-05-10T14:05:21;7.80;;;3.78;;
15126;SDS011;7664;52.008;4.748;2023-05-10T14:07:52;5.28;;;3.65;;
15126;SDS011;7664;52.008;4.748;2023-05-10T14:10:20;5.55;;;3.25;;
15126;SDS011;7664;52.008;4.748;2023-05-10T14:12:49;5.55;;;3.63;;
15126;SDS011;7664;52.008;4.748;2023-05-10T14:15:17;6.47;;;3.60;;
15126;SDS011;7664;52.008;4.748;2023-05-10T14:17:47;5.72;;;3.22;;
15126;SDS011;7664;52.008;4.748;2023-05-10T14:20:16;6.15;;;3.15;;
15126;SDS011;7664;52.008;4.748;2023-05-10T14:22:44;6.55;;;3.13;;
15126;SDS011;7664;52.008;4.748;2023-05-10T14:25:12;6.63;;;3.38;;
15126;SDS011;7664;52.008;4.748;2023-05-10T14:27:41;5.68;;;3.70;;
15126;SDS011;7664;52.008;4.748;2023-05-10T14:30:10;5.05;;;3.20;;
15126;SDS011;7664;52.008;4.748;2023-05-10T14:32:38;7.90;;;3.47;;
15126;SDS011;7664;52.008;4.748;2023-05-10T14:35:08;3.38;;;2.13;;
15126;SDS011;7664;52.008;4.748;2023-05-10T14:37:38;5.10;;;3.17;;
15126;SDS011;7664;52.008;4.748;2023-05-10T14:40:07;4.35;;;3.00;;
15126;SDS011;7664;52.008;4.748;2023-05-10T14:42:36;4.90;;;3.40;;
15126;SDS011;7664;52.008;4.748;2023-05-10T14:45:04;4.22;;;2.47;;
15126;SDS011;7664;52.008;4.748;2023-05-10T14:47:33;5.13;;;2.95;;
15126;SDS011;7664;52.008;4.748;2023-05-10T14:50:01;4.45;;;2.55;;
15126;SDS011;7664;52.008;4.748;2023-05-10T14:52:31;3.22;;;2.63;;
15126;SDS011;7664;52.008;4.748;2023-05-10T14:55:00;5.40;;;2.55;;
15126;SDS011;7664;52.008;4.748;2023-05-10T14:57:28;9.65;;;2.67;;
15126;SDS011;7664;52.008;4.748;2023-05-10T14:59:56;3.28;;;2.20;;
15126;SDS011;7664;52.008;4.748;2023-05-10T15:02:25;3.33;;;2.80;;
15126;SDS011;7664;52.008;4.748;2023-05-10T15:04:54;4.28;;;2.90;;